Woodstock, New Hampshire
Current Conditions -  °F | °C
As of 7:52 PM on Monday 22 Dec 2014 (Local Time) from KHIE Reporting Station
Broken Clouds Broken Clouds  
Wind Chill: 32°   Ceiling: 3900
Heat Index: 32°   Visibility: 10mi
Dew Point: 26°   Wind: 0mph
Humidity: 79%   Direction: NA
Pressure: 30.3"   Gusts: NA
Location:  44.3°N, 71.5°W
Report Text: KHIE 230052Z AUTO 00000KT 10SM BKN039 BKN046 00/M03 A3030 RMK AO2 SLP276 T00001033
Loading
Personal Weather Stations






























Interactive Weather Map New forecast layout! Learn more

10-Day Weather Forecast

Advertisements
Track Severe Weather on mobile